Time;durP1;ratioP1;P1;durP2;ratioP2;P2;SDS_P1;SDS_P2;PMS_P1;PMS_P2;Temp;Humidity;BMP_temperature;BMP_pressure;BME280_temperature;BME280_humidity;BME280_pressure;Samples;Min_cycle;Max_cycle;Signal;HPM_P1;HPM_P2
2022/05/12 00:01:48;;;;;;;7.22;1.17;;;12.40;99.90;;;;;;4846175;29;20049;-92
2022/05/12 00:04:15;;;;;;;5.05;0.68;;;12.30;99.90;;;;;;4845462;29;20066;-93
2022/05/12 00:06:47;;;;;;;4.88;0.80;;;12.30;99.90;;;;;;4845737;29;20049;-93
2022/05/12 00:09:14;;;;;;;3.13;0.80;;;12.40;99.90;;;;;;4860002;29;20511;-93
2022/05/12 00:11:48;;;;;;;6.93;0.98;;;12.30;99.90;;;;;;4860690;29;20459;-93
2022/05/12 00:14:19;;;;;;;3.30;0.90;;;12.30;99.90;;;;;;4860210;29;20049;-94
2022/05/12 00:16:50;;;;;;;10.35;0.70;;;12.30;99.90;;;;;;4845244;29;20053;-92
2022/05/12 00:19:26;;;;;;;5.57;0.70;;;12.20;99.90;;;;;;4861089;29;20467;-93
2022/05/12 00:21:57;;;;;;;9.18;0.80;;;12.20;99.90;;;;;;4860631;29;20053;-93
2022/05/12 00:24:26;;;;;;;3.90;0.75;;;12.20;99.90;;;;;;4845640;29;20563;-92
2022/05/12 00:26:54;;;;;;;4.03;0.85;;;12.20;99.90;;;;;;4845911;29;20492;-92
2022/05/12 00:29:21;;;;;;;1.52;0.32;;;12.10;99.90;;;;;;4860279;29;20049;-92
2022/05/12 00:31:49;;;;;;;8.60;0.95;;;12.10;99.90;;;;;;4845203;29;20498;-93
2022/05/12 00:34:20;;;;;;;5.68;0.90;;;12.10;99.90;;;;;;4860806;29;20050;-93
2022/05/12 00:36:47;;;;;;;4.57;1.17;;;12.10;99.90;;;;;;4845022;29;20076;-92
2022/05/12 00:39:17;;;;;;;6.25;1.02;;;12.10;99.90;;;;;;4860069;29;20050;-93
2022/05/12 00:41:48;;;;;;;3.00;0.80;;;12.00;99.90;;;;;;4860792;29;20049;-92
2022/05/12 00:44:16;;;;;;;6.45;2.65;;;12.00;99.90;;;;;;4845282;29;20046;-92
2022/05/12 00:46:49;;;;;;;9.18;1.30;;;12.00;99.90;;;;;;4861797;29;20101;-92
2022/05/12 00:49:25;;;;;;;;;;;12.00;99.90;;;;;;4861174;29;20053;-92
2022/05/12 00:52:00;;;;;;;3.78;0.80;;;12.00;99.90;;;;;;4845404;29;20014;-92
2022/05/12 00:54:38;;;;;;;4.70;1.27;;;12.00;99.90;;;;;;4844757;29;20060;-91
2022/05/12 00:57:09;;;;;;;2.22;1.00;;;12.00;99.90;;;;;;4860168;29;20061;-92
2022/05/12 00:59:37;;;;;;;6.88;1.13;;;12.00;99.90;;;;;;4845373;29;20381;-92
2022/05/12 01:02:10;;;;;;;5.35;1.30;;;11.90;99.90;;;;;;4845429;29;20080;-93
2022/05/12 01:04:39;;;;;;;;;;;11.90;99.90;;;;;;4863642;29;20054;-92
2022/05/12 01:07:06;;;;;;;3.00;1.23;;;11.90;99.90;;;;;;4848773;29;20015;-92
2022/05/12 01:09:33;;;;;;;4.05;0.98;;;11.80;99.90;;;;;;4862897;29;20106;-92
2022/05/12 01:12:02;;;;;;;4.90;1.15;;;11.80;99.90;;;;;;4848098;29;20476;-92
2022/05/12 01:14:29;;;;;;;5.90;1.23;;;11.80;99.90;;;;;;4864989;29;20049;-91
2022/05/12 01:17:00;;;;;;;6.25;1.58;;;11.80;99.90;;;;;;4855430;29;20053;-92
2022/05/12 01:19:32;;;;;;;3.00;0.88;;;11.80;99.90;;;;;;4845802;29;20053;-92
2022/05/12 01:22:02;;;;;;;7.43;1.30;;;11.80;99.90;;;;;;4846146;29;20480;-92
2022/05/12 01:24:38;;;;;;;3.60;1.30;;;11.80;99.90;;;;;;4829631;29;20060;-92
2022/05/12 01:27:20;;;;;;;4.50;1.63;;;11.80;99.90;;;;;;4844885;29;20382;-92
2022/05/12 01:29:58;;;;;;;9.77;1.50;;;11.80;99.90;;;;;;4844827;29;20058;-91
2022/05/12 01:32:28;;;;;;;3.40;1.08;;;11.80;99.90;;;;;;4845012;29;20073;-92
2022/05/12 01:34:56;;;;;;;4.18;1.33;;;11.80;99.90;;;;;;4829062;29;20054;-92
2022/05/12 01:37:24;;;;;;;1.83;0.65;;;11.80;99.90;;;;;;4829127;29;20564;-92
2022/05/12 01:39:52;;;;;;;7.40;1.60;;;11.80;99.90;;;;;;4844364;29;20088;-92
2022/05/12 01:42:20;;;;;;;6.28;1.80;;;11.80;99.90;;;;;;4844127;29;20050;-92
2022/05/12 01:44:47;;;;;;;4.38;1.13;;;11.80;99.90;;;;;;4844212;29;20057;-92
2022/05/12 01:47:15;;;;;;;6.22;1.38;;;11.80;99.90;;;;;;4845118;29;20103;-91
2022/05/12 01:49:43;;;;;;;5.93;1.25;;;11.80;99.90;;;;;;4857237;29;20042;-92
2022/05/12 01:52:10;;;;;;;7.25;1.63;;;11.70;99.90;;;;;;4833149;29;20054;-92
2022/05/12 01:54:37;;;;;;;6.05;1.23;;;11.70;99.90;;;;;;4838942;29;20145;-90
2022/05/12 01:57:05;;;;;;;10.30;1.77;;;11.70;99.90;;;;;;4839188;29;20057;-92
2022/05/12 01:59:32;;;;;;;10.20;1.63;;;11.70;99.90;;;;;;4843961;29;20114;-92
2022/05/12 02:01:59;;;;;;;8.20;1.63;;;11.70;99.90;;;;;;4843866;29;20049;-92
2022/05/12 02:04:26;;;;;;;6.22;1.40;;;11.70;99.90;;;;;;4828179;29;20137;-92
2022/05/12 02:06:55;;;;;;;5.32;1.42;;;11.70;99.90;;;;;;4843963;29;20068;-91
2022/05/12 02:09:23;;;;;;;10.80;2.25;;;11.70;99.90;;;;;;4828831;29;20049;-91
2022/05/12 02:11:51;;;;;;;7.10;1.58;;;11.70;99.90;;;;;;4845056;29;20080;-92
2022/05/12 02:14:22;;;;;;;9.68;1.77;;;11.70;99.90;;;;;;4843956;29;20046;-92
2022/05/12 02:16:50;;;;;;;2.78;0.98;;;11.70;99.90;;;;;;4844055;29;20062;-92
2022/05/12 02:19:19;;;;;;;5.45;1.65;;;11.70;99.90;;;;;;4843741;29;20050;-91
2022/05/12 02:21:48;;;;;;;5.13;1.45;;;11.70;99.90;;;;;;4845286;29;20046;-92
2022/05/12 02:24:15;;;;;;;6.03;1.50;;;11.70;99.90;;;;;;4843507;29;20046;-92
2022/05/12 02:26:44;;;;;;;6.40;1.17;;;11.70;99.90;;;;;;4843923;29;20054;-92
2022/05/12 02:29:11;;;;;;;5.88;0.90;;;11.70;99.90;;;;;;4828543;29;20106;-92
2022/05/12 02:31:40;;;;;;;5.70;1.33;;;11.60;99.90;;;;;;4843781;29;20078;-91
2022/05/12 02:34:08;;;;;;;4.00;0.73;;;11.60;99.90;;;;;;4857026;29;20057;-92
2022/05/12 02:36:35;;;;;;;4.15;1.15;;;11.70;99.90;;;;;;4846359;29;20049;-93
2022/05/12 02:39:03;;;;;;;5.05;1.55;;;11.70;99.90;;;;;;4862310;29;20045;-91
2022/05/12 02:41:36;;;;;;;4.25;1.30;;;11.70;99.90;;;;;;4862466;29;20137;-92
2022/05/12 02:44:03;;;;;;;10.68;1.98;;;11.70;99.90;;;;;;4846613;29;20045;-92
2022/05/12 02:46:30;;;;;;;2.85;0.68;;;11.60;99.90;;;;;;4846784;29;20082;-92
2022/05/12 02:49:02;;;;;;;4.75;2.10;;;11.60;99.90;;;;;;4846694;29;20049;-92
2022/05/12 02:51:30;;;;;;;3.88;1.75;;;11.60;99.90;;;;;;4846509;29;20496;-92
2022/05/12 02:53:57;;;;;;;4.82;0.70;;;11.70;99.90;;;;;;4846487;29;20079;-93
2022/05/12 02:56:26;;;;;;;4.72;0.85;;;11.60;99.90;;;;;;4846643;29;20050;-91
2022/05/12 02:58:53;;;;;;;6.65;0.90;;;11.70;99.90;;;;;;4861476;29;20051;-92
2022/05/12 03:01:20;;;;;;;6.03;1.33;;;11.70;99.90;;;;;;4861666;29;20105;-91
2022/05/12 03:03:49;;;;;;;2.35;0.43;;;11.70;99.90;;;;;;4861132;29;20140;-92
2022/05/12 03:06:17;;;;;;;3.50;0.98;;;11.70;99.90;;;;;;4861734;29;20133;-92
2022/05/12 03:08:45;;;;;;;4.57;0.60;;;11.70;99.90;;;;;;4847233;29;20267;-92
2022/05/12 03:11:13;;;;;;;5.63;1.60;;;11.70;99.90;;;;;;4862239;29;20125;-92
2022/05/12 03:13:40;;;;;;;6.38;1.02;;;11.60;99.90;;;;;;4861707;29;20050;-92
2022/05/12 03:16:08;;;;;;;4.03;0.90;;;11.60;99.90;;;;;;4863839;29;20049;-93
2022/05/12 03:18:37;;;;;;;4.55;1.00;;;11.60;99.90;;;;;;4862110;29;20513;-91
2022/05/12 03:21:09;;;;;;;4.35;1.00;;;11.60;99.90;;;;;;4862584;29;20050;-92
2022/05/12 03:23:36;;;;;;;5.75;1.50;;;11.60;99.90;;;;;;4846316;29;20046;-92
2022/05/12 03:26:05;;;;;;;2.83;0.90;;;11.60;99.90;;;;;;4860856;29;20057;-93
2022/05/12 03:28:33;;;;;;;3.80;0.77;;;11.60;99.90;;;;;;4846214;29;20050;-92
2022/05/12 03:31:00;;;;;;;6.05;0.82;;;11.60;99.90;;;;;;4860918;29;20084;-91
2022/05/12 03:33:27;;;;;;;5.97;1.38;;;11.60;99.90;;;;;;4861068;29;20053;-92
2022/05/12 03:35:56;;;;;;;5.07;1.20;;;11.60;99.90;;;;;;4861273;29;20587;-92
2022/05/12 03:38:24;;;;;;;6.55;1.10;;;11.50;99.90;;;;;;4861902;29;20499;-92
2022/05/12 03:40:52;;;;;;;3.88;1.02;;;11.50;99.90;;;;;;4860802;29;20117;-92
2022/05/12 03:46:07;;;;;;;6.75;1.10;;;11.50;99.90;;;;;;4861584;29;20060;-92
2022/05/12 03:48:38;;;;;;;3.45;1.10;;;11.50;99.90;;;;;;4860027;29;20113;-92
2022/05/12 03:51:07;;;;;;;9.90;1.63;;;11.50;99.90;;;;;;4858887;29;20411;-92
2022/05/12 03:53:37;;;;;;;7.05;1.10;;;11.50;99.90;;;;;;4867822;29;20049;-92
2022/05/12 03:56:06;;;;;;;6.95;1.00;;;11.50;99.90;;;;;;4868584;29;20136;-92
2022/05/12 03:58:34;;;;;;;5.40;1.80;;;11.50;99.90;;;;;;4852405;29;20064;-91
2022/05/12 04:01:05;;;;;;;10.18;1.50;;;11.50;99.90;;;;;;4850786;29;20049;-91
2022/05/12 04:03:38;;;;;;;2.88;1.17;;;11.50;99.90;;;;;;4846078;29;20053;-91
2022/05/12 04:06:07;;;;;;;10.52;1.70;;;11.50;99.90;;;;;;4845355;29;20041;-89
2022/05/12 04:08:34;;;;;;;3.75;0.80;;;11.50;99.90;;;;;;4843255;29;20050;-90
2022/05/12 04:11:01;;;;;;;4.95;1.65;;;11.40;99.90;;;;;;4827472;29;20050;-90
2022/05/12 04:13:28;;;;;;;2.60;1.13;;;11.40;99.90;;;;;;4827436;29;20149;-90
2022/05/12 04:16:03;;;;;;;4.85;1.10;;;11.40;99.90;;;;;;4846819;29;20053;-89
2022/05/12 04:18:32;;;;;;;6.53;1.50;;;11.40;99.90;;;;;;4859981;29;20059;-90
2022/05/12 04:21:04;;;;;;;3.58;0.98;;;11.40;99.90;;;;;;4844858;29;20496;-91
2022/05/12 04:23:31;;;;;;;5.13;1.30;;;11.40;99.90;;;;;;4860452;29;20071;-92
2022/05/12 04:26:01;;;;;;;4.18;1.90;;;11.40;99.90;;;;;;4844924;29;20475;-93
2022/05/12 04:28:33;;;;;;;10.70;2.00;;;11.40;99.90;;;;;;4845450;29;20046;-92
2022/05/12 04:31:00;;;;;;;5.95;1.13;;;11.40;99.90;;;;;;4844759;29;20061;-92
2022/05/12 04:36:15;;;;;;;3.35;1.27;;;11.40;99.90;;;;;;4860096;29;20488;-92
2022/05/12 04:38:46;;;;;;;8.10;2.25;;;11.40;99.90;;;;;;4847348;29;20050;-93
2022/05/12 04:41:13;;;;;;;12.23;1.55;;;11.40;99.90;;;;;;4848648;29;20106;-92
2022/05/12 04:43:44;;;;;;;10.77;1.17;;;11.50;99.90;;;;;;4864074;29;20046;-92
2022/05/12 04:46:15;;;;;;;8.95;2.50;;;11.40;99.90;;;;;;4863842;29;20041;-92
2022/05/12 04:48:53;;;;;;;3.00;0.85;;;11.40;99.90;;;;;;4864194;29;20560;-93
2022/05/12 04:51:29;;;;;;;11.45;4.93;;;11.50;99.90;;;;;;4857126;29;20411;-91
2022/05/12 04:54:01;;;;;;;2.92;0.93;;;11.40;99.90;;;;;;4849353;29;20562;-90
2022/05/12 04:56:30;;;;;;;7.00;1.45;;;11.40;99.90;;;;;;4864867;29;20045;-92
2022/05/12 04:59:00;;;;;;;7.95;1.90;;;11.40;99.90;;;;;;4864586;29;20407;-92
2022/05/12 05:01:31;;;;;;;4.93;1.27;;;11.40;99.90;;;;;;4865564;29;20053;-91
2022/05/12 05:04:04;;;;;;;8.55;1.67;;;11.40;99.90;;;;;;4849353;29;20058;-92
2022/05/12 05:06:42;;;;;;;6.30;1.50;;;11.50;99.90;;;;;;4864864;29;20073;-92
2022/05/12 05:09:12;;;;;;;7.28;1.15;;;11.40;99.90;;;;;;4865553;29;20133;-91
2022/05/12 05:11:52;;;;;;;4.75;1.45;;;11.50;99.90;;;;;;4836159;29;20053;-93
2022/05/12 05:14:34;;;;;;;4.60;1.08;;;11.50;99.90;;;;;;4864332;29;20422;-92
2022/05/12 05:17:10;;;;;;;5.30;1.55;;;11.40;99.90;;;;;;4864040;29;20049;-94
2022/05/12 05:19:47;;;;;;;5.32;1.83;;;11.50;99.90;;;;;;4864618;29;20136;-91
2022/05/12 05:22:27;;;;;;;10.32;1.98;;;11.50;99.90;;;;;;4867803;29;20037;-93
2022/05/12 05:25:06;;;;;;;5.80;1.20;;;11.50;99.90;;;;;;4868756;29;20192;-92
2022/05/12 05:27:51;;;;;;;4.35;1.27;;;11.50;99.90;;;;;;4856737;29;20045;-93
2022/05/12 05:30:29;;;;;;;8.32;1.73;;;11.50;99.90;;;;;;4867889;29;20053;-92
2022/05/12 05:33:11;;;;;;;2.97;0.85;;;11.60;99.90;;;;;;4849864;29;20057;-92
2022/05/12 05:35:49;;;;;;;7.18;1.50;;;11.60;99.90;;;;;;4863736;29;20058;-93
2022/05/12 05:38:32;;;;;;;7.78;1.00;;;11.60;99.90;;;;;;4849580;29;20152;-93
2022/05/12 05:41:19;;;;;;;5.13;1.70;;;11.60;99.90;;;;;;4864156;29;20050;-93
2022/05/12 05:44:02;;;;;;;3.72;1.27;;;11.60;99.90;;;;;;4880163;24;20074;-92
2022/05/12 05:46:33;;;;;;;3.97;1.30;;;11.70;99.90;;;;;;4866589;29;20492;-92
2022/05/12 05:49:11;;;;;;;5.43;1.95;;;11.70;99.90;;;;;;4849210;29;20049;-92
2022/05/12 05:54:43;;;;;;;7.30;2.13;;;11.80;99.90;;;;;;4856273;29;20082;-92
2022/05/12 05:57:33;;;;;;;6.45;2.05;;;11.80;99.90;;;;;;4855029;29;20109;-94
2022/05/12 06:00:12;;;;;;;8.57;1.50;;;11.80;99.90;;;;;;4872940;29;20049;-92
2022/05/12 06:02:50;;;;;;;9.00;2.08;;;11.90;99.90;;;;;;4851760;29;20053;-92
2022/05/12 06:05:28;;;;;;;12.05;2.95;;;12.00;99.90;;;;;;4862668;29;20049;-92
2022/05/12 06:08:25;;;;;;;8.27;1.65;;;12.00;99.90;;;;;;4863369;29;20057;-93
2022/05/12 06:11:41;;;;;;;7.18;0.93;;;12.00;99.90;;;;;;4863679;29;20552;-93
2022/05/12 06:14:21;;;;;;;6.32;1.80;;;12.00;99.90;;;;;;4848186;29;20069;-93
2022/05/12 06:17:16;;;;;;;2.55;1.33;;;12.10;99.90;;;;;;4862470;29;20069;-92
2022/05/12 06:19:54;;;;;;;7.15;2.40;;;12.20;99.90;;;;;;4847335;29;20144;-93
2022/05/12 06:22:41;;;;;;;9.27;3.03;;;12.20;99.90;;;;;;4848033;29;20056;-93
2022/05/12 06:25:18;;;;;;;9.95;1.50;;;12.20;99.90;;;;;;4862362;29;20045;-92
2022/05/12 06:27:55;;;;;;;11.50;1.55;;;12.20;99.90;;;;;;4847366;29;20064;-93
2022/05/12 06:30:37;;;;;;;6.53;1.58;;;12.30;99.90;;;;;;4847935;29;20054;-93
2022/05/12 06:33:22;;;;;;;10.23;1.65;;;12.20;99.90;;;;;;4862706;29;20051;-93
2022/05/12 06:35:56;;;;;;;11.10;1.58;;;12.30;99.90;;;;;;4848053;29;20045;-93
2022/05/12 06:39:13;;;;;;;3.65;1.42;;;12.30;99.90;;;;;;4862937;29;20052;-93
2022/05/12 06:42:04;;;;;;;9.18;2.70;;;12.40;99.90;;;;;;4849249;29;20049;-93
2022/05/12 06:44:44;;;;;;;4.65;1.30;;;12.40;99.90;;;;;;4862889;29;20050;-93
2022/05/12 06:47:30;;;;;;;6.53;1.58;;;12.40;99.90;;;;;;4848031;29;20499;-93
2022/05/12 06:50:09;;;;;;;9.40;1.27;;;12.40;99.90;;;;;;4847374;29;20384;-92
2022/05/12 06:52:49;;;;;;;10.63;2.92;;;12.40;99.90;;;;;;4861968;29;20053;-92
2022/05/12 06:55:26;;;;;;;8.60;1.85;;;12.50;99.90;;;;;;4846580;29;20064;-95
2022/05/12 06:58:24;;;;;;;;;;;;;;;;;;;;;
2022/05/12 07:01:15;;;;;;;10.82;1.63;;;12.50;99.90;;;;;;4860495;29;20045;-92
2022/05/12 07:03:54;;;;;;;5.65;1.48;;;12.50;99.90;;;;;;4861142;29;20052;-93
2022/05/12 07:06:52;;;;;;;5.25;1.48;;;12.50;99.90;;;;;;4847346;29;20049;-93
2022/05/12 07:10:01;;;;;;;10.63;2.35;;;12.60;99.90;;;;;;4848196;29;20057;-93
2022/05/12 07:13:01;;;;;;;8.00;2.67;;;12.70;99.90;;;;;;4849692;29;20072;-94
2022/05/12 07:17:01;;;;;;;10.45;2.10;;;12.70;99.90;;;;;;4860477;29;20049;-93
2022/05/12 07:28:11;;;;;;;8.93;2.60;;;12.70;99.90;;;;;;4861910;29;20129;-94
2022/05/12 07:36:01;;;;;;;;;;;;;;;;;;;;;
2022/05/12 08:28:13;;;;;;;7.68;1.63;;;13.00;99.90;;;;;;4879560;29;20507;-92
2022/05/12 08:36:07;;;;;;;;;;;;;;;;;;;;;
2022/05/12 08:39:54;;;;;;;4.97;1.15;;;13.00;99.90;;;;;;4809014;29;20106;-93
2022/05/12 09:36:41;;;;;;;;;;;;;;;;;;;;;
2022/05/12 09:39:50;;;;;;;5.53;1.20;;;13.40;99.90;;;;;;4902534;29;20139;-93
2022/05/12 09:52:52;;;;;;;4.85;1.27;;;13.80;99.90;;;;;;4902757;29;20051;-95
2022/05/12 10:57:27;;;;;;;8.02;1.65;;;14.70;99.90;;;;;;3379712;23;20113;31
2022/05/12 11:00:51;;;;;;;6.03;2.03;;;14.70;99.90;;;;;;4813349;29;20046;-94
2022/05/12 11:04:36;;;;;;;;;;;;;;;;;;;;;
2022/05/12 11:12:59;;;;;;;4.35;1.40;;;15.10;99.90;;;;;;4735049;30;20584;-93
2022/05/12 11:20:54;;;;;;;;;;;;;;;;;;;;;
2022/05/12 11:27:12;;;;;;;3.80;1.05;;;15.20;99.90;;;;;;5037084;23;20104;-92
2022/05/12 11:30:40;;;;;;;7.07;1.50;;;15.30;99.90;;;;;;4886964;29;20047;-92
2022/05/12 12:07:56;;;;;;;2.78;1.17;;;15.80;99.90;;;;;;4998793;23;20055;-91
2022/05/12 12:10:57;;;;;;;4.65;1.30;;;16.00;99.90;;;;;;4917497;29;20406;-91
2022/05/12 12:13:50;;;;;;;5.80;1.50;;;16.00;99.90;;;;;;4903604;29;20044;-89
2022/05/12 12:17:04;;;;;;;5.90;1.52;;;16.10;99.90;;;;;;4883407;29;20446;-92
2022/05/12 12:19:48;;;;;;;5.10;1.63;;;16.20;99.90;;;;;;4896624;29;20055;-93
2022/05/12 12:23:13;;;;;;;7.50;1.15;;;16.30;99.90;;;;;;4881837;29;20132;-93
2022/05/12 12:26:36;;;;;;;5.47;1.58;;;16.30;97.80;;;;;;4896947;29;20060;-92
2022/05/12 12:29:38;;;;;;;4.63;1.13;;;16.30;95.00;;;;;;4869134;29;20056;-93
2022/05/12 12:32:31;;;;;;;4.47;1.75;;;16.30;96.10;;;;;;4881671;29;20048;-93
2022/05/12 12:35:31;;;;;;;7.15;1.70;;;16.40;92.50;;;;;;4871566;29;20495;-92
2022/05/12 12:38:09;;;;;;;6.05;1.70;;;16.40;91.10;;;;;;4859216;29;20066;-93
2022/05/12 12:40:51;;;;;;;5.60;2.50;;;16.40;90.80;;;;;;4881282;29;20234;-94
2022/05/12 12:47:17;;;;;;;11.82;1.10;;;16.50;87.50;;;;;;4897595;29;20407;-92
2022/05/12 12:50:05;;;;;;;3.38;0.85;;;16.70;84.20;;;;;;4880784;29;20045;-93
2022/05/12 12:52:45;;;;;;;4.70;1.02;;;16.80;87.90;;;;;;4881177;29;20100;-92
2022/05/12 12:58:35;;;;;;;2.90;1.05;;;16.80;81.20;;;;;;4880941;29;20135;-92
2022/05/12 13:01:16;;;;;;;7.03;1.70;;;16.80;79.50;;;;;;4875520;29;20044;-93
2022/05/12 13:03:55;;;;;;;5.43;1.33;;;16.80;82.10;;;;;;4902335;29;20083;-93
2022/05/12 13:06:37;;;;;;;8.68;1.02;;;16.90;83.60;;;;;;4905123;29;20051;-92
2022/05/12 13:09:12;;;;;;;4.65;1.63;;;16.90;74.70;;;;;;4885035;29;20116;-92
2022/05/12 13:11:42;;;;;;;2.97;1.75;;;16.90;72.40;;;;;;4869478;29;20513;-92
2022/05/12 13:14:16;;;;;;;3.45;1.58;;;16.90;71.30;;;;;;4899865;29;20222;-92
2022/05/12 13:17:02;;;;;;;5.82;1.52;;;16.90;71.40;;;;;;4899167;29;20080;-93
2022/05/12 13:24:14;;;;;;;6.57;1.70;;;16.90;71.40;;;;;;4822000;29;20436;-93
2022/05/12 13:26:48;;;;;;;5.88;1.38;;;17.00;71.40;;;;;;4807296;29;20142;-94
2022/05/12 13:29:27;;;;;;;8.32;1.55;;;17.10;73.50;;;;;;4792891;29;20141;-93
2022/05/12 13:32:43;;;;;;;5.65;1.35;;;17.10;69.80;;;;;;4808524;29;20060;-92
2022/05/12 13:35:39;;;;;;;9.77;1.95;;;17.10;69.70;;;;;;4795929;29;20067;-95
2022/05/12 13:38:15;;;;;;;6.63;1.80;;;17.20;75.10;;;;;;4840233;29;20057;-94
2022/05/12 13:41:40;;;;;;;4.57;1.30;;;17.30;67.00;;;;;;4870823;29;20048;-94
2022/05/12 13:44:24;;;;;;;3.10;1.38;;;17.30;65.50;;;;;;4868864;29;20139;-93
2022/05/12 13:46:56;;;;;;;7.57;1.92;;;17.40;65.30;;;;;;4866653;29;20052;-94
2022/05/12 13:49:35;;;;;;;4.15;1.67;;;17.40;64.70;;;;;;4865170;29;20045;-94
2022/05/12 13:52:22;;;;;;;6.03;1.52;;;17.60;62.30;;;;;;4850595;29;20052;-93
2022/05/12 13:54:58;;;;;;;8.55;1.83;;;17.70;63.90;;;;;;4865942;29;20464;-94
2022/05/12 14:00:51;;;;;;;7.88;1.90;;;17.60;55.70;;;;;;4860700;29;20053;-93
2022/05/12 14:03:27;;;;;;;5.80;2.20;;;17.70;46.30;;;;;;4865579;29;20045;-93
2022/05/12 14:06:28;;;;;;;4.72;1.50;;;17.70;46.10;;;;;;4850917;29;20059;-94
2022/05/12 14:09:21;;;;;;;6.28;1.83;;;17.80;41.70;;;;;;4862256;29;20075;-95
2022/05/12 14:12:29;;;;;;;10.13;2.13;;;17.80;33.00;;;;;;4869099;29;20483;-93
2022/05/12 14:20:41;;;;;;;5.43;1.80;;;18.20;37.00;;;;;;4876730;29;20045;-90
2022/05/12 15:00:18;;;;;;;4.10;1.40;;;19.60;1.00;;;;;;4898252;29;20049;-91
2022/05/12 15:03:52;;;;;;;5.10;1.67;;;20.00;1.00;;;;;;4897851;29;20471;-95
2022/05/12 15:56:12;;;;;;;3.25;0.90;;;22.20;1.00;;;;;;4823964;29;20532;-94
2022/05/12 15:59:16;;;;;;;3.72;0.88;;;22.20;1.00;;;;;;4823686;29;20047;-95
2022/05/12 16:02:37;;;;;;;5.53;1.65;;;22.20;1.00;;;;;;4799324;29;20122;-92
2022/05/12 16:07:22;;;;;;;3.15;0.93;;;22.20;1.00;;;;;;4809141;29;20055;-93
2022/05/12 17:45:40;;;;;;;4.05;1.10;;;19.50;1.00;;;;;;4902546;29;20060;-90
2022/05/12 17:48:08;;;;;;;5.55;1.38;;;19.50;1.00;;;;;;4866972;29;20487;-89
2022/05/12 17:50:37;;;;;;;4.40;1.20;;;19.40;1.00;;;;;;4864541;29;20448;-91
2022/05/12 17:53:04;;;;;;;3.75;1.00;;;19.30;1.00;;;;;;4864484;29;20060;-90
2022/05/12 17:55:32;;;;;;;9.32;1.60;;;19.20;1.00;;;;;;4864555;29;20460;-89
2022/05/12 17:57:59;;;;;;;8.90;1.67;;;19.20;1.00;;;;;;4872245;29;20059;-90
2022/05/12 18:00:27;;;;;;;5.75;1.83;;;19.20;1.00;;;;;;4876618;29;20060;-90
2022/05/12 18:02:54;;;;;;;7.20;1.35;;;19.00;1.00;;;;;;4880344;29;20045;-92
2022/05/12 18:05:21;;;;;;;6.00;1.33;;;19.00;1.00;;;;;;4903899;29;20048;-91
2022/05/12 18:07:48;;;;;;;5.30;1.83;;;19.00;1.00;;;;;;4868154;29;20056;-91
2022/05/12 18:10:22;;;;;;;3.13;1.20;;;18.90;1.00;;;;;;4883818;29;20054;-91
2022/05/12 18:12:57;;;;;;;3.70;1.52;;;18.80;1.00;;;;;;4883699;29;20498;-90
2022/05/12 18:15:25;;;;;;;5.05;1.50;;;18.80;1.00;;;;;;4883129;29;20053;-91
2022/05/12 18:17:52;;;;;;;7.40;2.03;;;18.80;1.00;;;;;;4883339;29;20048;-90
2022/05/12 18:20:43;;;;;;;;;;;;;;;;;;;;;
2022/05/12 18:23:47;;;;;;;3.78;1.45;;;18.60;1.00;;;;;;4863792;29;20141;-90
2022/05/12 18:26:14;;;;;;;7.35;1.92;;;18.50;1.00;;;;;;4881344;29;20121;-90
2022/05/12 18:28:41;;;;;;;8.02;2.40;;;18.50;1.00;;;;;;4848778;29;20153;-90
2022/05/12 18:31:09;;;;;;;6.78;2.35;;;18.40;1.00;;;;;;4881076;29;20055;-90
2022/05/12 18:33:37;;;;;;;3.80;1.63;;;18.30;1.00;;;;;;4871282;29;20052;-90
2022/05/12 18:36:08;;;;;;;3.47;1.58;;;18.30;1.00;;;;;;4882850;29;20052;-90
2022/05/12 18:38:40;;;;;;;5.10;1.73;;;18.20;1.00;;;;;;4867219;29;20068;-90
2022/05/12 18:41:08;;;;;;;6.78;2.30;;;18.20;1.00;;;;;;4882701;29;20474;-91
2022/05/12 18:43:38;;;;;;;6.40;2.15;;;18.10;1.00;;;;;;4885368;29;20136;-90
2022/05/12 18:46:05;;;;;;;4.60;1.10;;;18.00;1.00;;;;;;4878013;29;20063;-89
2022/05/12 18:48:32;;;;;;;5.75;2.13;;;18.00;1.00;;;;;;4884127;29;20127;-92
2022/05/12 18:50:59;;;;;;;6.68;1.10;;;17.90;1.00;;;;;;4900932;29;20045;-91
2022/05/12 18:53:26;;;;;;;8.32;1.17;;;17.80;1.00;;;;;;4867370;29;20060;-92
2022/05/12 18:55:53;;;;;;;3.95;1.30;;;17.80;1.00;;;;;;4882314;29;20131;-91
2022/05/12 18:58:21;;;;;;;4.72;1.85;;;17.70;1.00;;;;;;4866105;29;20464;-89
2022/05/12 19:00:48;;;;;;;3.85;1.10;;;17.70;1.00;;;;;;4882291;29;20085;-91
2022/05/12 19:03:17;;;;;;;5.82;1.50;;;17.50;1.00;;;;;;4882314;29;20059;-90
2022/05/12 19:05:44;;;;;;;7.65;2.88;;;17.50;1.00;;;;;;4882132;29;20047;-90
2022/05/12 19:08:11;;;;;;;12.10;1.48;;;17.40;1.00;;;;;;4867011;29;20044;-91
2022/05/12 19:10:39;;;;;;;5.72;1.65;;;17.30;1.00;;;;;;4867385;29;20140;-90
2022/05/12 19:13:07;;;;;;;11.57;1.92;;;17.30;1.00;;;;;;4882256;29;20399;-91
2022/05/12 19:15:35;;;;;;;4.38;1.70;;;17.30;1.00;;;;;;4865529;29;20486;-90
2022/05/12 19:18:08;;;;;;;6.80;1.23;;;17.20;1.00;;;;;;4888858;29;20059;-91
2022/05/12 19:20:48;;;;;;;6.30;1.05;;;17.10;1.00;;;;;;4871593;29;20053;-90
2022/05/12 19:23:17;;;;;;;5.85;1.42;;;17.10;1.00;;;;;;4865592;29;20045;-90
2022/05/12 19:25:49;;;;;;;5.85;2.03;;;17.10;1.00;;;;;;4875284;29;20101;-90
2022/05/12 19:28:18;;;;;;;7.90;1.80;;;17.10;1.00;;;;;;4885736;29;20124;-89
2022/05/12 19:30:47;;;;;;;8.45;1.70;;;17.00;1.00;;;;;;4848553;29;20076;-89
2022/05/12 19:33:20;;;;;;;8.82;2.63;;;16.90;1.00;;;;;;4863877;29;20049;-91
2022/05/12 19:35:50;;;;;;;7.30;1.77;;;16.80;1.00;;;;;;4864201;29;20072;-90
2022/05/12 19:38:23;;;;;;;8.82;2.75;;;16.80;1.00;;;;;;4863037;29;20472;-90
2022/05/12 19:40:50;;;;;;;9.50;2.13;;;16.70;1.00;;;;;;4864572;29;20124;-91
2022/05/12 19:43:25;;;;;;;10.05;2.10;;;16.70;1.00;;;;;;4878776;29;20052;-91
2022/05/12 19:45:54;;;;;;;5.10;1.90;;;16.60;1.00;;;;;;4874527;29;20083;-91
2022/05/12 19:48:29;;;;;;;10.32;1.52;;;16.50;1.00;;;;;;4876746;29;20051;-90
2022/05/12 19:51:00;;;;;;;5.45;1.52;;;16.50;1.00;;;;;;4886854;29;20052;-91
2022/05/12 19:53:51;;;;;;;4.10;1.25;;;16.50;1.00;;;;;;4899801;29;20037;-91
2022/05/12 19:56:18;;;;;;;13.60;2.10;;;16.50;1.00;;;;;;4885243;29;20104;-92
2022/05/12 19:58:53;;;;;;;6.70;2.35;;;16.40;1.00;;;;;;4884622;29;20048;-92
2022/05/12 20:01:24;;;;;;;3.58;1.13;;;16.40;1.00;;;;;;4893377;29;20109;-93
2022/05/12 20:03:53;;;;;;;8.10;1.52;;;16.40;1.00;;;;;;4892137;29;20052;-91
2022/05/12 20:06:20;;;;;;;8.68;1.75;;;16.40;1.00;;;;;;4890998;29;20048;-92
2022/05/12 20:08:48;;;;;;;13.15;2.10;;;16.30;1.00;;;;;;4881840;29;20101;-93
2022/05/12 20:11:15;;;;;;;8.50;1.35;;;16.20;1.00;;;;;;4882418;29;20052;-93
2022/05/12 20:13:42;;;;;;;11.02;1.75;;;16.20;1.00;;;;;;4867102;29;20123;-93
2022/05/12 20:16:10;;;;;;;7.97;1.92;;;16.10;1.00;;;;;;4866685;29;20060;-92
2022/05/12 20:18:39;;;;;;;12.68;1.73;;;16.20;1.00;;;;;;4882002;29;20053;-92
2022/05/12 20:21:09;;;;;;;5.93;1.83;;;16.20;1.00;;;;;;4866592;29;20075;-93
2022/05/12 20:23:42;;;;;;;9.25;1.85;;;16.20;1.00;;;;;;4899022;29;20045;-91
2022/05/12 20:26:25;;;;;;;10.50;3.38;;;16.10;1.00;;;;;;4882054;29;20052;-95
2022/05/12 20:28:53;;;;;;;8.02;2.35;;;16.00;1.00;;;;;;4881238;29;20115;-91
2022/05/12 20:31:20;;;;;;;17.73;2.65;;;16.10;1.00;;;;;;4882007;29;20041;-90
2022/05/12 20:33:47;;;;;;;7.28;2.15;;;16.00;1.00;;;;;;4865494;29;20132;-91
2022/05/12 20:36:14;;;;;;;10.32;2.60;;;16.00;1.00;;;;;;4866114;29;20052;-91
2022/05/12 20:38:42;;;;;;;8.30;2.28;;;16.00;1.00;;;;;;4881855;29;20057;-91
2022/05/12 20:41:09;;;;;;;9.95;2.83;;;15.90;1.00;;;;;;4850657;29;20546;-91
2022/05/12 20:43:38;;;;;;;11.07;2.05;;;15.90;1.00;;;;;;4881754;29;20105;-92
2022/05/12 20:46:07;;;;;;;8.10;1.80;;;15.70;1.00;;;;;;4880960;29;20087;-90
2022/05/12 20:48:37;;;;;;;7.10;2.03;;;15.80;1.00;;;;;;4880854;29;20083;-89
2022/05/12 20:51:06;;;;;;;9.73;2.38;;;15.70;1.00;;;;;;4881105;29;20041;-90
2022/05/12 20:53:33;;;;;;;15.82;2.38;;;15.70;1.00;;;;;;4870610;29;20495;-89
2022/05/12 20:56:03;;;;;;;6.82;1.67;;;15.70;1.00;;;;;;4868131;29;20136;-90
2022/05/12 20:58:30;;;;;;;10.32;2.40;;;15.70;1.00;;;;;;4898672;29;20033;-89
2022/05/12 21:00:58;;;;;;;9.70;2.72;;;15.70;1.00;;;;;;4865237;29;20503;-89
2022/05/12 21:03:27;;;;;;;7.93;2.63;;;15.70;1.00;;;;;;4881734;29;20059;-90
2022/05/12 21:05:56;;;;;;;14.32;2.55;;;15.70;1.00;;;;;;4881124;29;20045;-89
2022/05/12 21:08:27;;;;;;;6.97;2.50;;;15.70;1.00;;;;;;4880858;29;20100;-88
2022/05/12 21:10:55;;;;;;;9.27;2.55;;;15.60;1.00;;;;;;4880334;29;20068;-91
2022/05/12 21:13:22;;;;;;;13.57;2.58;;;15.60;1.00;;;;;;4880477;29;20045;-92
2022/05/12 21:15:50;;;;;;;9.63;1.50;;;15.60;1.00;;;;;;4864773;29;20108;-92
2022/05/12 21:18:19;;;;;;;7.93;1.98;;;15.50;1.00;;;;;;4880677;29;20483;-90
2022/05/12 21:20:49;;;;;;;10.60;2.72;;;15.50;1.00;;;;;;4881824;29;20467;-90
2022/05/12 21:23:17;;;;;;;13.55;2.45;;;15.50;1.00;;;;;;4883468;29;20452;-90